Time;durP1;ratioP1;P1;durP2;ratioP2;P2;SDS_P1;SDS_P2;PMS_P1;PMS_P2;Temp;Humidity;BMP_temperature;BMP_pressure;BME280_temperature;BME280_humidity;BME280_pressure;Samples;Min_cycle;Max_cycle;Signal;HPM_P1;HPM_P2
2021/05/13 11:19:51;;;;;;;;;;;;;;;17.38;73.56;96536.58;1782056;79;22273;-69
2021/05/13 11:22:18;;;;;;;1.52;0.98;;;;;;;17.36;72.60;96538.60;1748142;82;20161;-69
2021/05/13 11:24:45;;;;;;;0.93;0.72;;;;;;;17.43;70.98;96544.06;1752523;82;21660;-68
2021/05/13 11:27:12;;;;;;;2.87;0.93;;;;;;;17.54;70.41;96560.92;1752727;82;21091;-69
2021/05/13 11:29:50;;;;;;;0.55;0.50;;;;;;;17.63;68.61;96565.37;1752771;82;21071;-69
2021/05/13 11:32:19;;;;;;;0.30;0.30;;;;;;;17.64;65.74;96564.35;1752741;82;21555;-69
2021/05/13 11:34:47;;;;;;;0.30;0.30;;;;;;;17.65;64.61;96561.52;1752892;81;21474;-68
2021/05/13 11:37:37;;;;;;;0.15;0.15;;;;;;;17.81;63.17;96551.72;1752592;81;21194;-69
2021/05/13 11:40:24;;;;;;;0.20;0.20;;;;;;;18.11;63.18;96544.34;1752774;82;21527;-69
2021/05/13 11:43:14;;;;;;;0.33;0.23;;;;;;;18.60;61.26;96540.59;1752863;82;21087;-69
2021/05/13 11:45:41;;;;;;;0.20;0.10;;;;;;;19.46;60.34;96534.59;1752501;82;21535;-73
2021/05/13 11:48:23;;;;;;;0.40;0.40;;;;;;;20.34;58.27;96534.95;1752592;82;21043;-66
2021/05/13 11:50:51;;;;;;;0.90;0.53;;;;;;;20.79;59.54;96532.22;1752652;82;21483;-66
2021/05/13 11:53:20;;;;;;;0.80;0.80;;;;;;;21.55;56.39;96530.12;1752563;81;21653;-66
2021/05/13 11:55:48;;;;;;;0.80;0.50;;;;;;;21.92;53.23;96516.27;1752678;82;21023;-70
2021/05/13 11:58:45;;;;;;;3.92;0.80;;;;;;;22.50;50.32;96526.85;1752594;82;21138;-70
2021/05/13 12:01:43;;;;;;;1.20;0.88;;;;;;;23.31;47.27;96517.33;1752164;82;21152;-70
2021/05/13 12:04:17;;;;;;;1.62;0.62;;;;;;;23.57;49.94;96519.08;1752248;82;21020;-70
2021/05/13 12:07:03;;;;;;;1.33;0.70;;;;;;;24.56;42.03;96514.75;1752535;82;21167;-71
2021/05/13 12:09:30;;;;;;;2.10;1.60;;;;;;;24.56;42.03;96514.75;1751192;82;21635;-70
2021/05/13 12:11:57;;;;;;;0.50;0.50;;;;;;;23.65;43.08;96517.25;1752483;82;21071;-70
2021/05/13 12:14:27;;;;;;;0.47;0.47;;;;;;;23.80;42.23;96519.95;1752400;82;21155;-66
2021/05/13 12:16:59;;;;;;;1.42;0.85;;;;;;;23.30;40.40;96516.55;1752258;81;21027;-66
2021/05/13 12:19:31;;;;;;;0.82;0.70;;;;;;;23.01;42.38;96526.72;1742949;81;21433;-66
2021/05/13 12:22:02;;;;;;;1.70;0.82;;;;;;;22.69;42.21;96525.96;1739277;82;21523;-66
2021/05/13 12:24:37;;;;;;;1.35;0.55;;;;;;;21.91;43.86;96525.20;1739462;82;21142;-66
2021/05/13 12:27:05;;;;;;;0.98;0.65;;;;;;;21.94;43.56;96526.89;1739428;81;21040;-70
2021/05/13 12:29:36;;;;;;;1.72;0.50;;;;;;;21.83;45.13;96539.66;1739048;82;21124;-69
2021/05/13 12:32:04;;;;;;;0.62;0.62;;;;;;;21.66;44.83;96534.48;1738756;82;21014;-69
2021/05/13 12:34:42;;;;;;;0.60;0.50;;;;;;;21.53;44.59;96536.16;1738964;82;21183;-69
2021/05/13 12:37:21;;;;;;;1.00;0.60;;;;;;;21.27;45.16;96540.86;1738905;82;21064;-68
2021/05/13 12:39:49;;;;;;;1.17;0.93;;;;;;;21.08;45.85;96540.83;1738665;82;21076;-69
2021/05/13 12:42:29;;;;;;;0.70;0.50;;;;;;;20.85;46.99;96546.56;1760990;81;21052;-69
2021/05/13 12:45:21;;;;;;;0.68;0.57;;;;;;;20.77;47.16;96550.95;1757113;81;21029;-69
2021/05/13 12:48:02;;;;;;;1.32;0.80;;;;;;;20.54;48.01;96559.03;1774993;81;21000;-65
2021/05/13 12:50:32;;;;;;;0.98;0.88;;;;;;;20.04;50.91;96562.08;1774745;81;21072;-66
2021/05/13 12:53:15;;;;;;;1.65;0.98;;;;;;;20.04;50.81;96553.63;1774747;81;21016;-66
2021/05/13 12:55:45;;;;;;;0.68;0.60;;;;;;;20.58;50.50;96546.93;1775066;81;21132;-66
2021/05/13 12:58:15;;;;;;;1.22;0.68;;;;;;;21.20;47.67;96545.00;1774932;80;21163;-66
2021/05/13 13:00:46;;;;;;;2.08;1.55;;;;;;;21.38;48.00;96547.86;1774786;81;21135;-64
2021/05/13 13:03:16;;;;;;;1.12;1.00;;;;;;;21.46;48.60;96550.59;1774886;81;21075;-66
2021/05/13 13:05:44;;;;;;;0.88;0.82;;;;;;;21.59;47.02;96552.88;1774928;81;21107;-66
2021/05/13 13:08:11;;;;;;;0.65;0.60;;;;;;;21.48;48.67;96554.58;1774893;81;21139;-69
2021/05/13 13:10:43;;;;;;;0.60;0.60;;;;;;;21.46;47.95;96547.95;1774851;81;21056;-69
2021/05/13 13:13:25;;;;;;;1.40;1.10;;;;;;;21.39;48.03;96548.66;1774768;81;21060;-70
2021/05/13 13:15:56;;;;;;;1.07;0.90;;;;;;;20.86;50.10;96559.23;1774861;80;21178;-66
2021/05/13 13:18:24;;;;;;;1.02;0.82;;;;;;;20.78;50.03;96560.44;1774752;81;21515;-65
2021/05/13 13:20:52;;;;;;;1.30;1.20;;;;;;;20.45;50.74;96570.19;1775025;81;21077;-65
2021/05/13 13:23:31;;;;;;;1.02;0.60;;;;;;;20.25;51.59;96570.09;1775100;81;21064;-65
2021/05/13 13:26:03;;;;;;;0.75;0.60;;;;;;;20.08;51.84;96575.84;1774813;81;21032;-65
2021/05/13 13:28:31;;;;;;;2.62;0.95;;;;;;;19.79;52.19;96590.85;1774937;81;21068;-65
2021/05/13 13:31:02;;;;;;;5.22;0.68;;;;;;;19.63;52.91;96588.14;1774814;80;21051;-69
2021/05/13 13:33:33;;;;;;;2.95;0.90;;;;;;;19.46;54.07;96588.56;1774722;80;21518;-69
2021/05/13 13:36:01;;;;;;;1.07;0.98;;;;;;;19.37;55.00;96583.65;1775045;81;21476;-69
2021/05/13 13:38:29;;;;;;;1.00;0.80;;;;;;;19.23;56.53;96566.48;1774879;81;21637;-69
2021/05/13 13:41:00;;;;;;;2.80;0.75;;;;;;;19.09;58.55;96563.81;1774715;80;21044;-66
2021/05/13 13:43:30;;;;;;;1.17;0.88;;;;;;;18.85;60.86;96566.16;1774622;81;21068;-65
2021/05/13 13:45:59;;;;;;;3.50;2.62;;;;;;;18.65;60.93;96563.05;1774898;80;21032;-65
2021/05/13 13:48:27;;;;;;;1.75;1.20;;;;;;;18.34;63.82;96570.16;1774858;80;21131;-65
2021/05/13 13:50:57;;;;;;;1.50;1.05;;;;;;;18.62;61.59;96566.13;1775408;81;21075;-67
2021/05/13 13:53:26;;;;;;;1.35;1.25;;;;;;;18.13;64.37;96561.47;1775765;80;21020;-65
2021/05/13 13:55:55;;;;;;;1.72;1.30;;;;;;;18.27;63.32;96562.09;1776092;81;21009;-66
2021/05/13 13:58:22;;;;;;;1.85;1.55;;;;;;;18.65;63.76;96554.65;1774829;81;21567;-65
2021/05/13 14:00:54;;;;;;;1.47;0.90;;;;;;;18.71;63.51;96551.13;1775023;81;21139;-66
2021/05/13 14:03:22;;;;;;;1.10;0.90;;;;;;;19.01;63.33;96550.20;1774975;81;21145;-66
2021/05/13 14:05:51;;;;;;;1.70;1.30;;;;;;;19.16;60.53;96547.90;1774938;80;21080;-69
2021/05/13 14:08:19;;;;;;;2.50;1.67;;;;;;;19.12;60.73;96548.87;1774834;81;21563;-70
2021/05/13 14:10:48;;;;;;;1.90;1.42;;;;;;;19.02;60.90;96546.03;1774790;81;21117;-69
2021/05/13 14:13:14;;;;;;;4.78;1.52;;;;;;;18.71;61.54;96549.01;1774698;81;21083;-64
2021/05/13 14:15:41;;;;;;;1.75;1.10;;;;;;;18.13;65.41;96552.27;1774775;81;21037;-69
2021/05/13 14:18:08;;;;;;;4.28;2.55;;;;;;;18.43;66.54;96549.63;1774745;81;21080;-69
2021/05/13 14:20:35;;;;;;;2.70;1.12;;;;;;;18.24;66.88;96548.91;1780266;80;21091;-70
2021/05/13 14:23:02;;;;;;;3.17;1.15;;;;;;;18.55;65.33;96549.16;1780565;80;21076;-67
2021/05/13 14:25:29;;;;;;;2.27;1.75;;;;;;;18.73;63.42;96544.30;1780637;80;21028;-65
2021/05/13 14:27:57;;;;;;;0.80;0.70;;;;;;;18.99;65.09;96547.78;1780539;80;21052;-65
2021/05/13 14:30:24;;;;;;;1.10;0.80;;;;;;;19.28;62.63;96538.96;1780663;80;21060;-66
2021/05/13 14:32:52;;;;;;;0.95;0.80;;;;;;;19.80;59.50;96541.61;1780464;80;21032;-66
2021/05/13 14:35:24;;;;;;;1.32;0.80;;;;;;;20.41;57.54;96536.91;1780750;80;21190;-66
2021/05/13 14:37:58;;;;;;;0.88;0.78;;;;;;;20.58;57.03;96532.97;1780461;80;21020;-66
2021/05/13 14:40:26;;;;;;;0.70;0.70;;;;;;;20.91;54.38;96544.00;1779102;80;21655;-65
2021/05/13 14:42:54;;;;;;;3.42;0.95;;;;;;;21.24;51.15;96536.84;1744111;80;21040;-67
2021/05/13 14:45:21;;;;;;;1.60;0.88;;;;;;;21.52;51.26;96539.84;1746819;82;21538;-67
2021/05/13 14:48:01;;;;;;;0.85;0.80;;;;;;;22.51;49.17;96540.87;1746845;82;21161;-65
2021/05/13 14:50:25;;;;;;;1.42;0.70;;;;;;;22.00;48.24;96534.33;1746001;82;21051;-65
2021/05/13 14:52:52;;;;;;;1.10;1.00;;;;;;;22.12;49.46;96534.98;1737480;82;21032;-65
2021/05/13 14:55:20;;;;;;;1.17;1.07;;;;;;;21.17;51.13;96542.02;1732562;82;21527;-67
2021/05/13 14:57:48;;;;;;;1.60;1.12;;;;;;;21.01;51.80;96538.34;1746827;82;21194;-65
2021/05/13 15:00:22;;;;;;;22.58;11.38;;;;;;;20.69;51.60;96540.80;1746868;81;21066;-65
2021/05/13 15:02:53;;;;;;;2.10;1.75;;;;;;;20.66;51.43;96536.53;1746242;82;21108;-64
2021/05/13 15:05:21;;;;;;;2.35;1.37;;;;;;;19.71;54.61;96537.22;1746757;82;21020;-64
2021/05/13 15:07:48;;;;;;;1.32;0.98;;;;;;;19.66;55.66;96531.84;1746805;82;21551;-70
2021/05/13 15:10:15;;;;;;;1.27;0.70;;;;;;;19.64;55.61;96527.86;1746757;82;21566;-70
2021/05/13 15:12:43;;;;;;;1.90;1.55;;;;;;;19.38;56.70;96519.41;1747005;82;21048;-68
2021/05/13 15:15:16;;;;;;;2.58;1.05;;;;;;;19.36;57.91;96516.23;1746929;82;21113;-63
2021/05/13 15:17:42;;;;;;;1.75;1.12;;;;;;;19.60;57.24;96516.20;1746873;81;21045;-64
2021/05/13 15:20:11;;;;;;;5.03;2.55;;;;;;;19.57;56.20;96514.81;1750405;82;21028;-64
2021/05/13 15:22:38;;;;;;;4.55;2.42;;;;;;;19.21;55.62;96515.92;1752637;82;21039;-67
2021/05/13 15:25:07;;;;;;;2.60;1.70;;;;;;;19.40;56.69;96516.56;1752687;81;21660;-67
2021/05/13 15:27:34;;;;;;;7.80;1.90;;;;;;;19.16;56.20;96513.17;1753110;81;21090;-67
2021/05/13 15:30:03;;;;;;;2.58;1.85;;;;;;;19.02;56.34;96526.81;1753094;81;21174;-67
2021/05/13 15:32:30;;;;;;;2.05;1.57;;;;;;;19.25;56.61;96520.20;1753370;80;21032;-67
2021/05/13 15:34:57;;;;;;;1.55;0.70;;;;;;;19.24;55.92;96518.09;1752951;82;21075;-67
2021/05/13 15:37:24;;;;;;;1.82;1.05;;;;;;;18.66;57.99;96519.95;1752648;82;21059;-67
2021/05/13 15:39:53;;;;;;;2.22;1.50;;;;;;;18.98;57.93;96521.22;1753256;82;21051;-67
2021/05/13 15:42:21;;;;;;;4.12;2.10;;;;;;;19.30;57.80;96515.02;1753549;82;21064;-71
2021/05/13 15:44:48;;;;;;;3.90;1.30;;;;;;;19.15;58.58;96516.83;1753048;82;21103;-70
2021/05/13 15:47:15;;;;;;;1.25;1.00;;;;;;;18.84;58.99;96518.52;1752795;82;21136;-67
2021/05/13 15:49:42;;;;;;;1.82;1.10;;;;;;;18.72;59.74;96519.03;1751750;82;21091;-67
2021/05/13 15:52:08;;;;;;;1.60;1.40;;;;;;;18.73;59.30;96521.44;1751834;82;21083;-66
2021/05/13 15:54:35;;;;;;;1.92;1.35;;;;;;;18.95;59.29;96522.45;1752420;82;21530;-67
2021/05/13 15:57:04;;;;;;;2.10;1.45;;;;;;;18.89;59.12;96519.44;1752454;82;21104;-67
2021/05/13 15:59:30;;;;;;;6.15;1.30;;;;;;;18.84;59.50;96525.09;1752469;82;21246;-67
2021/05/13 16:01:59;;;;;;;2.40;1.32;;;;;;;18.79;59.62;96519.20;1752391;82;21189;-66
2021/05/13 16:04:28;;;;;;;3.45;1.10;;;;;;;18.74;59.21;96523.56;1752143;82;21531;-67
2021/05/13 16:06:55;;;;;;;2.65;1.32;;;;;;;18.68;59.97;96525.77;1738937;82;21176;-67
2021/05/13 16:09:22;;;;;;;4.55;1.22;;;;;;;18.72;60.22;96517.72;1748738;82;21052;-68
2021/05/13 16:11:49;;;;;;;3.50;1.15;;;;;;;18.60;61.30;96519.56;1753033;82;21134;-67
2021/05/13 16:14:16;;;;;;;1.82;0.93;;;;;;;18.56;61.81;96522.36;1752851;82;21024;-68
2021/05/13 16:16:43;;;;;;;5.22;1.10;;;;;;;18.37;62.95;96519.77;1752936;82;21083;-64
2021/05/13 16:19:10;;;;;;;1.45;0.80;;;;;;;18.16;62.43;96524.27;1752769;82;21079;-64
2021/05/13 16:21:37;;;;;;;1.90;1.40;;;;;;;18.11;62.95;96520.19;1752907;82;21091;-64
2021/05/13 16:24:06;;;;;;;7.30;1.17;;;;;;;18.16;62.08;96523.45;1752873;82;21063;-67
2021/05/13 16:26:33;;;;;;;2.80;1.30;;;;;;;18.21;62.42;96528.31;1753004;80;21042;-66
2021/05/13 16:29:00;;;;;;;3.42;1.10;;;;;;;18.15;62.94;96530.53;1752769;80;21535;-67
2021/05/13 16:31:27;;;;;;;1.82;0.75;;;;;;;18.06;63.51;96530.55;1752884;82;21554;-67
2021/05/13 16:33:54;;;;;;;2.05;1.20;;;;;;;18.08;63.61;96527.72;1752999;82;21534;-66
2021/05/13 16:36:20;;;;;;;2.62;1.00;;;;;;;17.97;64.61;96529.30;1752982;82;21527;-64
2021/05/13 16:38:47;;;;;;;1.35;0.80;;;;;;;17.85;65.16;96525.82;1752480;80;21062;-64
2021/05/13 16:41:14;;;;;;;1.67;1.20;;;;;;;17.56;66.36;96529.48;1748605;80;22371;-64
2021/05/13 16:43:41;;;;;;;7.78;1.40;;;;;;;17.29;67.27;96528.70;1722195;82;21059;-64
2021/05/13 16:46:11;;;;;;;3.12;1.20;;;;;;;17.30;66.53;96524.55;1722663;82;21055;-64
2021/05/13 16:48:39;;;;;;;2.08;1.02;;;;;;;17.12;67.55;96519.29;1722653;82;21150;-65
2021/05/13 16:51:07;;;;;;;1.57;1.17;;;;;;;17.07;67.62;96525.72;1722695;82;21584;-63
2021/05/13 16:53:35;;;;;;;1.60;1.22;;;;;;;17.11;67.71;96529.52;1722795;83;21103;-64
2021/05/13 16:56:02;;;;;;;2.92;2.20;;;;;;;17.15;67.83;96528.56;1722955;82;21075;-62
2021/05/13 16:58:29;;;;;;;2.92;1.40;;;;;;;17.16;67.36;96532.27;1722828;83;21027;-65
2021/05/13 17:00:56;;;;;;;2.42;1.27;;;;;;;17.07;68.49;96528.34;1722866;82;21573;-64
2021/05/13 17:03:24;;;;;;;2.98;1.15;;;;;;;16.91;68.68;96523.16;1722904;83;21056;-64
2021/05/13 17:05:57;;;;;;;1.62;1.20;;;;;;;16.86;69.18;96523.50;1723173;83;21047;-64
2021/05/13 17:08:19;;;;;;;1.67;1.27;;;;;;;16.79;69.77;96529.33;1736712;82;21575;-65
2021/05/13 17:10:46;;;;;;;3.10;1.20;;;;;;;16.64;70.14;96536.72;1752634;82;21099;-66
2021/05/13 17:13:13;;;;;;;2.37;1.42;;;;;;;16.32;72.00;96543.80;1752865;82;21044;-67
2021/05/13 17:15:40;;;;;;;1.50;1.10;;;;;;;16.12;72.70;96549.98;1752778;81;21547;-67
2021/05/13 17:18:07;;;;;;;3.35;1.60;;;;;;;16.00;73.32;96541.19;1752696;82;21055;-67
2021/05/13 17:20:35;;;;;;;1.30;1.00;;;;;;;16.17;72.24;96544.61;1745515;81;21071;-67
2021/05/13 17:23:02;;;;;;;1.90;1.37;;;;;;;16.21;71.39;96553.66;1738901;82;21096;-67
2021/05/13 17:25:29;;;;;;;2.05;1.25;;;;;;;16.18;72.48;96554.89;1738674;82;21057;-67
2021/05/13 17:27:56;;;;;;;4.30;1.10;;;;;;;16.16;71.00;96558.20;1738830;82;21031;-67
2021/05/13 17:30:24;;;;;;;1.72;1.52;;;;;;;16.17;70.70;96559.02;1738758;82;21057;-64
2021/05/13 17:32:51;;;;;;;1.10;1.00;;;;;;;16.13;71.84;96557.33;1738802;81;21060;-63
2021/05/13 17:35:18;;;;;;;2.80;1.07;;;;;;;16.06;72.90;96553.95;1739027;82;21171;-64
2021/05/13 17:37:45;;;;;;;7.17;2.60;;;;;;;16.02;71.51;96560.62;1714643;82;21114;-64
2021/05/13 17:40:15;;;;;;;8.28;3.27;;;;;;;15.90;73.74;96563.11;1709385;84;21378;-65
2021/05/13 17:42:42;;;;;;;7.62;3.35;;;;;;;15.78;74.70;96562.66;1709295;83;21531;-64
2021/05/13 17:45:10;;;;;;;5.40;2.52;;;;;;;15.64;75.45;96561.41;1709488;82;21048;-64
2021/05/13 17:47:38;;;;;;;2.40;1.57;;;;;;;15.56;75.41;96564.78;1710949;81;21706;-64
2021/05/13 17:50:07;;;;;;;2.98;1.37;;;;;;;15.53;74.97;96565.17;1744460;81;21538;-64
2021/05/13 17:52:34;;;;;;;3.00;1.50;;;;;;;15.51;75.31;96560.67;1744374;81;21155;-64
2021/05/13 17:55:05;;;;;;;2.65;1.60;;;;;;;15.46;75.66;96561.75;1744357;81;22245;-66
2021/05/13 17:57:33;;;;;;;3.05;2.02;;;;;;;15.44;75.49;96564.59;1744069;81;21047;-66
2021/05/13 18:00:01;;;;;;;7.97;4.80;;;;;;;15.39;76.57;96569.63;1744135;82;21031;-66
2021/05/13 18:02:29;;;;;;;5.15;3.55;;;;;;;15.34;77.05;96575.98;1744352;82;21106;-66
2021/05/13 18:04:58;;;;;;;45.92;23.02;;;;;;;15.32;77.30;96575.89;1743891;81;21131;-66
2021/05/13 18:07:25;;;;;;;13.80;7.05;;;;;;;15.33;76.19;96572.28;1744226;82;21031;-66
2021/05/13 18:09:52;;;;;;;2.55;1.87;;;;;;;15.36;76.03;96576.59;1744317;82;21574;-64
2021/05/13 18:12:19;;;;;;;4.30;2.65;;;;;;;15.35;76.24;96582.83;1744209;82;21079;-66
2021/05/13 18:14:46;;;;;;;4.00;1.82;;;;;;;15.33;76.35;96580.91;1744177;81;21082;-66
2021/05/13 18:17:13;;;;;;;2.95;1.77;;;;;;;15.31;77.06;96584.74;1744284;81;21110;-66
2021/05/13 18:19:39;;;;;;;5.72;2.30;;;;;;;15.28;76.67;96586.47;1744014;81;21071;-65
2021/05/13 18:22:06;;;;;;;5.33;2.10;;;;;;;15.21;78.83;96591.72;1744271;82;21078;-65
2021/05/13 18:24:33;;;;;;;2.85;1.90;;;;;;;15.28;77.71;96595.63;1744277;82;21042;-65
2021/05/13 18:27:01;;;;;;;2.92;1.60;;;;;;;15.32;77.40;96601.55;1744162;81;21088;-71
2021/05/13 18:29:31;;;;;;;3.90;1.82;;;;;;;15.35;77.30;96594.59;1740836;81;21086;-65
2021/05/13 18:31:58;;;;;;;2.12;1.47;;;;;;;15.40;76.46;96599.22;1740033;81;21074;-65
2021/05/13 18:34:24;;;;;;;1.90;1.45;;;;;;;15.44;75.87;96601.22;1744194;81;21118;-65
2021/05/13 18:36:51;;;;;;;3.37;1.70;;;;;;;15.47;75.51;96603.92;1744040;82;21561;-65
2021/05/13 18:39:18;;;;;;;4.10;1.70;;;;;;;15.47;75.83;96606.53;1744292;82;21110;-65
2021/05/13 18:41:45;;;;;;;3.50;1.98;;;;;;;15.44;76.36;96612.98;1744199;82;21601;-66
2021/05/13 18:44:12;;;;;;;4.22;2.52;;;;;;;15.32;77.47;96613.82;1744005;81;21035;-68
2021/05/13 18:46:39;;;;;;;5.60;3.27;;;;;;;15.16;78.29;96613.75;1744242;81;21129;-68
2021/05/13 18:49:06;;;;;;;3.95;2.52;;;;;;;15.17;77.89;96614.84;1744262;81;21081;-68
2021/05/13 18:51:33;;;;;;;3.00;2.27;;;;;;;15.26;77.36;96619.35;1744197;81;21105;-68
2021/05/13 18:54:00;;;;;;;4.42;2.10;;;;;;;15.27;77.39;96617.55;1744320;81;21058;-65
2021/05/13 18:56:27;;;;;;;5.65;2.62;;;;;;;15.31;77.09;96620.86;1744163;81;21051;-65
2021/05/13 18:58:54;;;;;;;2.62;1.60;;;;;;;15.33;76.54;96624.06;1744115;82;21031;-65
2021/05/13 19:01:21;;;;;;;3.02;1.98;;;;;;;15.36;76.51;96625.48;1744130;82;21062;-65
2021/05/13 19:03:51;;;;;;;3.27;2.08;;;;;;;15.43;76.06;96632.80;1744304;81;21066;-66
2021/05/13 19:06:18;;;;;;;14.55;7.50;;;;;;;15.42;75.95;96632.50;1744258;81;21565;-66
2021/05/13 19:08:45;;;;;;;28.27;12.20;;;;;;;15.35;76.67;96629.91;1744145;82;21562;-65
2021/05/13 19:11:12;;;;;;;5.03;3.37;;;;;;;15.35;76.28;96638.25;1744241;81;21514;-65
2021/05/13 19:13:39;;;;;;;3.62;1.72;;;;;;;15.35;76.63;96639.06;1752427;81;21083;-65
2021/05/13 19:16:06;;;;;;;3.25;2.02;;;;;;;15.36;75.93;96642.48;1766901;81;21000;-65
2021/05/13 19:18:33;;;;;;;4.53;1.40;;;;;;;15.36;75.45;96651.64;1766738;81;21609;-68
2021/05/13 19:21:00;;;;;;;2.17;1.40;;;;;;;15.38;75.17;96651.72;1751334;80;21528;-68
2021/05/13 19:23:27;;;;;;;1.20;0.98;;;;;;;15.43;74.93;96648.00;1721186;82;21598;-68
2021/05/13 19:25:55;;;;;;;3.90;1.35;;;;;;;15.48;74.84;96649.51;1725415;82;21480;-67
2021/05/13 19:28:25;;;;;;;3.62;1.52;;;;;;;15.48;74.53;96656.55;1724139;82;21554;-68
2021/05/13 19:36:04;;;;;;;3.52;2.02;;;;;;;15.51;74.30;96658.28;1724527;82;21562;-68
2021/05/13 19:38:31;;;;;;;5.47;2.20;;;;;;;15.47;74.68;96666.20;1722917;82;21067;-68
2021/05/13 19:40:58;;;;;;;3.37;2.00;;;;;;;15.38;75.56;96675.27;1722402;82;21032;-68
2021/05/13 19:43:27;;;;;;;2.70;2.05;;;;;;;15.30;75.59;96674.17;1724054;82;21068;-67
2021/05/13 19:45:54;;;;;;;4.42;2.47;;;;;;;15.18;76.84;96677.09;1725499;82;21031;-67
2021/05/13 19:48:22;;;;;;;2.80;1.90;;;;;;;15.04;77.66;96676.31;1725699;82;21047;-66
2021/05/13 19:50:49;;;;;;;3.20;2.00;;;;;;;14.85;78.88;96686.27;1724293;82;21040;-68
2021/05/13 19:53:17;;;;;;;2.87;1.62;;;;;;;14.86;78.38;96680.53;1722698;82;21004;-67
2021/05/13 19:55:54;;;;;;;2.52;1.85;;;;;;;14.71;79.86;96676.28;1724839;82;21095;-66
2021/05/13 19:58:18;;;;;;;4.25;1.47;;;;;;;14.60;81.00;96676.88;1729256;82;21067;-66
2021/05/13 20:00:45;;;;;;;3.67;1.80;;;;;;;14.62;80.00;96672.77;1738434;82;21056;-65
2021/05/13 20:06:05;;;;;;;5.22;2.08;;;;;;;14.58;79.28;96669.75;1681949;82;21012;-67
2021/05/13 20:08:37;;;;;;;3.27;1.60;;;;;;;14.57;78.80;96673.36;1738015;82;21176;-67
2021/05/13 20:13:43;;;;;;;2.30;1.30;;;;;;;14.48;80.18;96682.38;1738889;82;21079;-67
2021/05/13 20:16:12;;;;;;;2.67;1.70;;;;;;;14.44;79.12;96683.77;1739006;82;21132;-67
2021/05/13 20:18:39;;;;;;;2.27;1.77;;;;;;;14.41;78.98;96680.26;1738770;82;21517;-67
2021/05/13 20:21:10;;;;;;;3.52;1.80;;;;;;;14.31;79.89;96690.26;1743093;82;21024;-68
2021/05/13 20:23:39;;;;;;;4.97;1.62;;;;;;;14.28;78.82;96689.31;1752886;82;21040;-68
2021/05/13 20:28:46;;;;;;;2.90;1.20;;;;;;;14.15;79.22;96690.10;1710107;82;21079;-68
2021/05/13 20:31:09;;;;;;;1.35;1.07;;;;;;;14.15;78.43;96687.50;1746415;82;21130;-67
2021/05/13 20:33:35;;;;;;;3.15;1.40;;;;;;;14.17;77.94;96684.67;1752787;82;21427;-67
2021/05/13 20:36:03;;;;;;;2.35;1.22;;;;;;;14.17;76.55;96684.17;1743088;82;21086;-67
2021/05/13 20:38:31;;;;;;;1.87;1.07;;;;;;;14.21;75.92;96684.09;1723946;83;21090;-68
2021/05/13 20:40:59;;;;;;;1.22;0.93;;;;;;;14.21;74.62;96676.75;1723042;83;21051;-68
2021/05/13 20:43:27;;;;;;;4.58;1.17;;;;;;;14.20;74.66;96679.86;1723180;83;21079;-67
2021/05/13 20:45:55;;;;;;;1.75;0.90;;;;;;;14.20;74.27;96679.86;1723317;83;21083;-67
2021/05/13 20:48:25;;;;;;;1.77;0.70;;;;;;;14.23;74.48;96676.07;1723007;83;21063;-68
2021/05/13 21:01:40;;;;;;;1.27;0.60;;;;;;;14.23;73.30;96677.37;1723275;83;21119;-66
2021/05/13 21:04:14;;;;;;;0.57;0.42;;;;;;;14.28;72.95;96673.65;1722976;82;21143;-66
2021/05/13 21:06:42;;;;;;;0.40;0.40;;;;;;;14.32;72.49;96673.56;1722329;83;21602;-68
2021/05/13 21:12:07;;;;;;;0.40;0.40;;;;;;;14.42;71.57;96674.03;1723021;83;21046;-66
2021/05/13 21:14:31;;;;;;;0.55;0.30;;;;;;;14.46;71.66;96672.64;1719301;83;21013;-68
2021/05/13 21:22:28;;;;;;;0.40;0.40;;;;;;;14.48;71.68;96670.63;1715730;82;21175;-68
2021/05/13 21:25:08;;;;;;;0.30;0.30;;;;;;;14.46;71.32;96670.03;1710397;82;21080;-66
2021/05/13 21:27:33;;;;;;;0.30;0.28;;;;;;;14.43;71.21;96663.91;1709661;82;21207;-66
2021/05/13 21:29:53;;;;;;;0.28;0.28;;;;;;;14.42;71.13;96664.90;1710191;83;21057;-66
2021/05/13 21:32:18;;;;;;;0.40;0.40;;;;;;;14.42;71.02;96664.90;1711923;82;21547;-69
2021/05/13 21:34:45;;;;;;;0.30;0.30;;;;;;;14.44;70.94;96668.10;1712148;84;21147;-69
2021/05/13 21:37:12;;;;;;;0.55;0.55;;;;;;;14.42;70.84;96671.42;1712262;84;21063;-68
2021/05/13 21:39:40;;;;;;;1.87;0.45;;;;;;;14.40;70.99;96673.42;1712028;82;21131;-68
2021/05/13 21:42:08;;;;;;;1.22;0.35;;;;;;;14.36;70.81;96677.95;1712091;84;21056;-64
2021/05/13 21:44:35;;;;;;;1.37;0.33;;;;;;;14.35;70.97;96673.22;1712059;82;21209;-64
2021/05/13 21:47:02;;;;;;;1.57;0.30;;;;;;;14.27;71.08;96668.15;1711985;82;21571;-64
2021/05/13 21:49:30;;;;;;;1.87;0.47;;;;;;;14.20;70.84;96660.80;1711993;82;21091;-65
2021/05/13 21:51:58;;;;;;;0.37;0.37;;;;;;;14.08;71.32;96666.28;1712114;83;21068;-63
2021/05/13 21:54:25;;;;;;;0.50;0.30;;;;;;;14.04;71.58;96668.98;1712181;82;21163;-63
2021/05/13 21:56:53;;;;;;;0.40;0.40;;;;;;;13.96;72.06;96661.31;1711870;83;21198;-64
2021/05/13 21:59:20;;;;;;;0.70;0.37;;;;;;;13.92;72.05;96662.20;1711811;84;21151;-63
2021/05/13 22:01:47;;;;;;;0.90;0.40;;;;;;;13.91;72.20;96667.11;1711040;82;21185;-63
2021/05/13 22:04:14;;;;;;;2.75;0.40;;;;;;;13.88;73.09;96664.09;1710987;83;21127;-65
2021/05/13 22:06:41;;;;;;;0.80;0.40;;;;;;;13.85;72.77;96663.19;1712054;82;21057;-65
2021/05/13 22:09:09;;;;;;;0.62;0.47;;;;;;;13.82;72.54;96659.14;1711845;82;21115;-64
2021/05/13 22:11:36;;;;;;;0.88;0.70;;;;;;;13.82;73.56;96657.02;1711968;82;21072;-66
2021/05/13 22:14:04;;;;;;;0.35;0.33;;;;;;;13.75;74.17;96658.31;1712007;84;21136;-65
2021/05/13 22:16:32;;;;;;;0.70;0.47;;;;;;;13.72;73.95;96662.13;1711816;84;21571;-64
2021/05/13 22:18:59;;;;;;;0.70;0.40;;;;;;;13.64;76.72;96660.97;1711953;82;21130;-66
2021/05/13 22:21:26;;;;;;;0.40;0.40;;;;;;;13.56;76.31;96661.13;1713109;83;21110;-64
2021/05/13 22:23:59;;;;;;;0.40;0.40;;;;;;;13.50;76.25;96658.50;1732234;81;21118;-65
2021/05/13 22:26:24;;;;;;;0.95;0.40;;;;;;;13.43;75.40;96661.05;1731819;83;21054;-64
2021/05/13 22:28:54;;;;;;;0.50;0.50;;;;;;;13.38;75.19;96660.84;1732484;83;21529;-63
2021/05/13 22:31:20;;;;;;;0.93;0.60;;;;;;;13.36;75.35;96665.42;1732856;82;21138;-64
2021/05/13 22:33:47;;;;;;;1.15;0.50;;;;;;;13.38;75.18;96658.23;1732772;81;21106;-64
2021/05/13 22:36:14;;;;;;;0.47;0.30;;;;;;;13.40;76.12;96665.84;1732764;83;21657;-64
2021/05/13 22:38:41;;;;;;;1.12;0.50;;;;;;;13.39;76.02;96664.22;1732809;83;21102;-63
2021/05/13 22:41:09;;;;;;;0.40;0.40;;;;;;;13.36;76.93;96660.70;1732848;83;21082;-64
2021/05/13 22:43:36;;;;;;;0.90;0.37;;;;;;;13.34;76.27;96654.89;1732939;83;21023;-63
2021/05/13 22:46:03;;;;;;;0.28;0.28;;;;;;;13.29;75.96;96660.17;1732796;81;21043;-63
2021/05/13 22:51:20;;;;;;;0.30;0.30;;;;;;;13.19;75.65;96662.30;1732721;81;21047;-65
2021/05/13 22:53:48;;;;;;;0.35;0.30;;;;;;;13.14;75.75;96667.79;1732108;83;21024;-64
2021/05/13 22:56:15;;;;;;;0.20;0.20;;;;;;;13.10;76.24;96666.06;1732434;83;21083;-64
2021/05/13 22:58:44;;;;;;;0.40;0.30;;;;;;;13.09;75.72;96664.91;1732961;82;21094;-65
2021/05/13 23:01:11;;;;;;;0.65;0.30;;;;;;;13.11;76.27;96661.66;1732744;83;21589;-65
2021/05/13 23:03:38;;;;;;;0.20;0.20;;;;;;;13.13;74.98;96660.95;1732705;83;21039;-64
2021/05/13 23:06:05;;;;;;;0.10;0.10;;;;;;;13.12;75.62;96665.36;1732646;81;21095;-65
2021/05/13 23:08:37;;;;;;;0.40;0.30;;;;;;;13.09;76.01;96662.30;1732615;83;21059;-64
2021/05/13 23:11:01;;;;;;;0.25;0.25;;;;;;;13.09;75.84;96664.91;1732078;83;21035;-64
2021/05/13 23:13:28;;;;;;;0.35;0.35;;;;;;;13.09;76.36;96667.51;1732845;81;21456;-64
2021/05/13 23:15:57;;;;;;;0.45;0.35;;;;;;;13.08;75.71;96665.40;1732692;81;21198;-64
2021/05/13 23:18:24;;;;;;;2.17;0.40;;;;;;;12.66;75.87;96605.06;1732781;83;21549;-65
2021/05/13 23:20:51;;;;;;;0.47;0.45;;;;;;;13.09;76.19;96669.63;1732801;82;21503;-65
2021/05/13 23:23:18;;;;;;;0.30;0.30;;;;;;;13.06;77.52;96668.70;1731076;81;21059;-71
2021/05/13 23:25:45;;;;;;;0.72;0.40;;;;;;;13.08;77.39;96676.31;1730477;83;21127;-69
2021/05/13 23:28:12;;;;;;;0.42;0.40;;;;;;;13.10;76.79;96670.47;1730357;81;22225;-68
2021/05/13 23:30:40;;;;;;;0.47;0.37;;;;;;;13.13;76.73;96665.67;1730402;81;21118;-70
2021/05/13 23:33:07;;;;;;;0.95;0.47;;;;;;;13.19;76.21;96666.73;1730687;83;21034;-70
2021/05/13 23:35:34;;;;;;;0.50;0.37;;;;;;;13.23;76.04;96663.53;1730529;83;21558;-68